createdAt,value
2019-02-23T00:02:07.243Z,4.90
2019-02-23T00:04:36.669Z,4.80
2019-02-23T00:07:06.240Z,4.90
2019-02-23T00:09:35.547Z,4.80
2019-02-23T00:12:05.188Z,4.90
2019-02-23T00:18:14.922Z,4.80
2019-02-23T00:20:44.269Z,4.80
2019-02-23T00:23:13.773Z,4.80
2019-02-23T00:29:23.272Z,4.80
2019-02-23T00:31:52.660Z,4.80
2019-02-23T00:34:24.190Z,4.70
2019-02-23T00:36:53.947Z,4.70
2019-02-23T00:39:23.258Z,4.80
2019-02-23T00:41:52.621Z,4.70
2019-02-23T00:44:21.993Z,4.70
2019-02-23T00:46:51.427Z,4.70
2019-02-23T00:49:21.383Z,4.70
2019-02-23T00:52:43.780Z,4.70
2019-02-23T00:55:13.123Z,4.80
2019-02-23T00:57:42.617Z,4.80
2019-02-23T01:00:13.295Z,4.80
2019-02-23T01:02:43.006Z,4.80
2019-02-23T01:08:52.417Z,4.70
2019-02-23T01:11:22.098Z,4.70
2019-02-23T01:17:32.441Z,4.70
2019-02-23T01:20:01.738Z,4.70
2019-02-23T01:22:31.474Z,4.80
2019-02-23T01:25:00.858Z,4.70
2019-02-23T01:27:30.295Z,4.70
2019-02-23T01:29:59.635Z,4.70
2019-02-23T01:32:29.354Z,4.70
2019-02-23T01:34:58.622Z,4.70
2019-02-23T01:37:33.132Z,4.70
2019-02-23T01:40:02.555Z,4.70
2019-02-23T01:42:31.988Z,4.70
2019-02-23T01:45:01.716Z,4.70
2019-02-23T01:47:32.698Z,4.70
2019-02-23T01:50:02.335Z,4.70
2019-02-23T01:56:12.167Z,4.70
2019-02-23T01:58:41.432Z,4.70
2019-02-23T02:01:11.331Z,4.70
2019-02-23T02:07:20.653Z,4.70
2019-02-23T02:09:50.562Z,4.70
2019-02-23T02:12:20.229Z,4.70
2019-02-23T02:18:32.780Z,4.60
2019-02-23T02:21:02.009Z,4.60
2019-02-23T02:23:31.316Z,4.60
2019-02-23T02:26:00.629Z,4.60
2019-02-23T02:28:29.873Z,4.60
2019-02-23T02:30:59.299Z,4.60
2019-02-23T02:33:28.608Z,4.50
2019-02-23T02:35:58.044Z,4.50
2019-02-23T02:42:07.763Z,4.50
2019-02-23T02:44:37.200Z,4.50
2019-02-23T02:47:07.068Z,4.50
2019-02-23T02:49:36.441Z,4.50
2019-02-23T02:52:05.992Z,4.50
2019-02-23T02:54:35.300Z,4.40
2019-02-23T02:57:04.967Z,4.40
2019-02-23T02:59:34.660Z,4.40
2019-02-23T03:02:04.376Z,4.40
2019-02-23T03:08:13.583Z,4.40
2019-02-23T03:10:43.066Z,4.40
2019-02-23T03:13:12.409Z,4.30
2019-02-23T03:15:42.020Z,4.30
2019-02-23T03:18:11.664Z,4.30
2019-02-23T03:20:42.133Z,4.30
2019-02-23T03:23:11.541Z,4.30
2019-02-23T03:25:40.987Z,4.30
2019-02-23T03:28:10.393Z,4.20
2019-02-23T03:30:39.847Z,4.20
2019-02-23T03:33:09.341Z,4.20
2019-02-23T03:35:38.654Z,4.20
2019-02-23T03:38:08.978Z,4.20
2019-02-23T03:40:38.355Z,4.10
2019-02-23T03:43:07.778Z,4.10
2019-02-23T03:45:38.254Z,4.10
2019-02-23T03:48:07.646Z,4.10
2019-02-23T03:50:48.381Z,4.10
2019-02-23T03:56:48.400Z,4.10
2019-02-23T04:09:15.242Z,3.90
2019-02-23T04:11:44.834Z,3.90
2019-02-23T04:14:15.871Z,4.00
2019-02-23T04:16:45.577Z,4.00
2019-02-23T04:19:17.305Z,4.00
2019-02-23T04:21:46.631Z,4.00
2019-02-23T04:24:16.241Z,4.00
2019-02-23T04:26:45.556Z,4.00
2019-02-23T04:29:14.821Z,4.00
2019-02-23T04:31:44.163Z,4.00
2019-02-23T04:37:53.816Z,4.00
2019-02-23T04:40:23.508Z,4.10
2019-02-23T04:42:53.141Z,4.10
2019-02-23T04:49:02.779Z,4.10
2019-02-23T04:51:32.510Z,4.10
2019-02-23T04:54:02.513Z,4.10
2019-02-23T04:56:34.590Z,4.10
2019-02-23T05:02:48.461Z,4.10
2019-02-23T05:05:18.227Z,4.10
2019-02-23T05:07:47.903Z,4.10
2019-02-23T05:10:17.387Z,4.10
2019-02-23T05:12:46.745Z,4.10
2019-02-23T05:16:02.565Z,4.10
2019-02-23T05:18:33.160Z,4.10
2019-02-23T05:21:02.898Z,4.10
2019-02-23T05:27:13.085Z,4.00
2019-02-23T05:30:35.676Z,3.90
2019-02-23T05:33:06.367Z,3.90
2019-02-23T05:35:37.976Z,3.80
2019-02-23T05:38:13.410Z,3.80
2019-02-23T05:40:57.947Z,3.80
2019-02-23T05:43:38.467Z,3.70
2019-02-23T05:46:40.744Z,3.70
2019-02-23T05:49:25.033Z,3.70
2019-02-23T05:55:41.475Z,3.70
2019-02-23T06:01:56.485Z,3.70
2019-02-23T06:07:23.241Z,3.60
2019-02-23T06:10:00.636Z,3.60
2019-02-23T06:12:30.339Z,3.60
2019-02-23T06:18:45.240Z,3.50
2019-02-23T06:21:36.670Z,3.50
2019-02-23T06:24:06.243Z,3.40
2019-02-23T06:26:36.119Z,3.40
2019-02-23T06:29:05.453Z,3.40
2019-02-23T06:31:52.754Z,3.30
2019-02-23T06:38:26.081Z,3.30
2019-02-23T06:44:08.846Z,3.30
2019-02-23T06:46:47.899Z,3.20
2019-02-23T06:49:29.941Z,3.20
2019-02-23T06:52:53.650Z,3.20
2019-02-23T06:55:40.031Z,3.20
2019-02-23T06:58:26.537Z,3.20
2019-02-23T07:01:46.672Z,3.10
2019-02-23T07:04:17.920Z,3.10
2019-02-23T07:07:03.654Z,3.00
2019-02-23T07:09:41.845Z,3.00
2019-02-23T07:12:07.250Z,3.10
2019-02-23T07:14:37.991Z,3.10
2019-02-23T07:17:08.213Z,3.20
2019-02-23T07:19:38.811Z,3.20
2019-02-23T07:22:15.655Z,3.20
2019-02-23T07:24:43.020Z,3.30
2019-02-23T07:27:13.364Z,3.30
2019-02-23T07:29:45.045Z,3.30
2019-02-23T07:32:54.756Z,3.30
2019-02-23T07:35:24.213Z,3.30
2019-02-23T07:37:55.618Z,3.40
2019-02-23T07:40:24.647Z,3.40
2019-02-23T07:42:54.377Z,3.50
2019-02-23T07:45:31.531Z,3.50
2019-02-23T07:48:00.553Z,3.60
2019-02-23T07:50:32.888Z,3.70
2019-02-23T07:53:01.988Z,3.70
2019-02-23T07:55:31.097Z,3.80
2019-02-23T07:58:00.414Z,3.80
2019-02-23T08:00:37.271Z,3.90
2019-02-23T08:03:06.487Z,3.90
2019-02-23T08:05:35.495Z,3.90
2019-02-23T08:08:04.528Z,4.00
2019-02-23T08:10:33.366Z,4.00
2019-02-23T08:13:02.750Z,4.00
2019-02-23T08:15:31.823Z,4.10
2019-02-23T08:18:01.707Z,4.10
2019-02-23T08:20:30.995Z,4.20
2019-02-23T08:23:00.355Z,4.20
2019-02-23T08:25:29.182Z,4.30
2019-02-23T08:27:59.014Z,4.30
2019-02-23T08:30:28.148Z,4.30
2019-02-23T08:32:57.242Z,4.30
2019-02-23T08:35:26.343Z,4.30
2019-02-23T08:37:55.451Z,4.30
2019-02-23T08:40:24.662Z,4.40
2019-02-23T08:43:05.893Z,4.40
2019-02-23T08:45:35.263Z,4.50
2019-02-23T08:48:04.720Z,4.50
2019-02-23T08:50:34.054Z,4.50
2019-02-23T08:53:03.187Z,4.60
2019-02-23T08:55:36.512Z,4.70
2019-02-23T08:58:05.863Z,4.70
2019-02-23T09:00:35.021Z,4.80
2019-02-23T09:03:04.068Z,4.90
2019-02-23T09:05:33.527Z,4.90
2019-02-23T09:08:02.695Z,5.00
2019-02-23T09:10:31.668Z,5.00
2019-02-23T09:13:01.077Z,5.10
2019-02-23T09:15:30.579Z,5.10
2019-02-23T09:17:59.596Z,5.10
2019-02-23T09:20:29.691Z,5.10
2019-02-23T09:23:00.445Z,5.20
2019-02-23T09:25:29.967Z,5.30
2019-02-23T09:27:59.397Z,5.40
2019-02-23T09:30:31.075Z,5.50
2019-02-23T09:33:00.455Z,5.50
2019-02-23T09:35:30.639Z,5.60
2019-02-23T09:38:00.121Z,5.70
2019-02-23T09:40:29.181Z,5.80
2019-02-23T09:42:58.238Z,5.80
2019-02-23T09:45:27.352Z,5.90
2019-02-23T09:47:56.776Z,6.00
2019-02-23T09:50:25.956Z,6.10
2019-02-23T09:53:14.278Z,6.20
2019-02-23T09:55:43.747Z,6.20
2019-02-23T09:58:12.889Z,6.30
2019-02-23T10:00:42.199Z,6.40
2019-02-23T10:03:13.169Z,6.50
2019-02-23T10:05:42.022Z,6.60
2019-02-23T10:08:11.720Z,6.70
2019-02-23T10:10:41.039Z,6.70
2019-02-23T10:13:10.359Z,6.80
2019-02-23T10:15:39.394Z,6.90
2019-02-23T10:18:11.174Z,7.00
2019-02-23T10:20:41.302Z,7.00
2019-02-23T10:23:21.543Z,7.10
2019-02-23T10:25:41.743Z,7.20
2019-02-23T10:28:11.022Z,7.20
2019-02-23T10:30:40.587Z,7.30
2019-02-23T10:33:10.089Z,7.30
2019-02-23T10:35:39.257Z,7.30
2019-02-23T10:38:08.469Z,7.40
2019-02-23T10:40:37.761Z,7.50
2019-02-23T10:43:07.103Z,7.50
2019-02-23T10:45:36.424Z,7.60
2019-02-23T10:48:07.725Z,7.60
2019-02-23T10:50:37.053Z,7.70
2019-02-23T10:53:06.381Z,7.80
2019-02-23T10:55:35.724Z,7.90
2019-02-23T10:58:04.939Z,8.00
2019-02-23T11:00:34.118Z,8.10
2019-02-23T11:03:14.405Z,8.20
2019-02-23T11:05:43.735Z,8.30
2019-02-23T11:08:13.196Z,8.40
2019-02-23T11:10:42.579Z,8.50
2019-02-23T11:13:11.519Z,8.60
2019-02-23T11:15:40.786Z,8.70
2019-02-23T11:18:09.750Z,8.80
2019-02-23T11:20:45.490Z,8.80
2019-02-23T11:23:14.988Z,8.80
2019-02-23T11:25:44.352Z,8.90
2019-02-23T11:28:47.262Z,8.90
2019-02-23T11:35:07.655Z,9.00
2019-02-23T11:37:38.504Z,9.20
2019-02-23T11:40:11.410Z,9.20
2019-02-23T11:45:16.572Z,9.30
2019-02-23T11:47:49.464Z,9.30
2019-02-23T11:50:59.185Z,9.40
2019-02-23T11:53:28.639Z,9.40
2019-02-23T11:55:58.426Z,9.50
2019-02-23T11:59:24.980Z,9.50
2019-02-23T12:01:56.261Z,9.50
2019-02-23T12:04:28.463Z,9.60
2019-02-23T12:07:16.267Z,9.70
2019-02-23T12:09:47.162Z,9.80
2019-02-23T12:12:39.731Z,9.90
2019-02-23T12:31:48.998Z,10.10
2019-02-23T12:34:19.397Z,10.10
2019-02-23T12:36:51.792Z,10.10
2019-02-23T12:39:26.305Z,10.20
2019-02-23T12:41:55.554Z,10.20
2019-02-23T12:44:25.328Z,10.20
2019-02-23T12:46:55.282Z,10.20
2019-02-23T12:49:34.577Z,10.20
2019-02-23T12:52:10.815Z,10.30
2019-02-23T12:54:40.337Z,10.40
2019-02-23T12:57:09.489Z,10.40
2019-02-23T12:59:38.958Z,10.40
2019-02-23T13:13:37.397Z,10.50
2019-02-23T13:19:27.155Z,10.60
2019-02-23T13:22:19.975Z,10.60
2019-02-23T13:29:11.900Z,10.80
2019-02-23T13:32:01.604Z,10.90
2019-02-23T13:35:59.412Z,11.00
2019-02-23T13:39:26.706Z,11.10
2019-02-23T13:42:23.347Z,11.10
2019-02-23T13:45:53.567Z,11.20
2019-02-23T13:53:06.389Z,11.30
2019-02-23T14:03:23.310Z,11.30
2019-02-23T14:06:25.913Z,11.40
2019-02-23T14:13:24.997Z,11.50
2019-02-23T14:16:26.331Z,11.60
2019-02-23T14:23:20.384Z,11.70
2019-02-23T14:26:28.492Z,11.80
2019-02-23T14:29:12.507Z,11.80
2019-02-23T14:35:56.536Z,11.70
2019-02-23T14:39:14.714Z,11.60
2019-02-23T14:42:11.498Z,11.70
2019-02-23T14:45:21.786Z,11.70
2019-02-23T14:48:45.610Z,11.80
2019-02-23T15:19:09.971Z,11.30
2019-02-23T15:22:35.791Z,11.20
2019-02-23T15:26:00.463Z,11.10
2019-02-23T15:29:15.041Z,11.10
2019-02-23T15:32:34.207Z,11.00
2019-02-23T15:42:31.420Z,10.80
2019-02-23T15:49:14.994Z,10.60
2019-02-23T15:52:00.925Z,10.50
2019-02-23T15:57:13.941Z,10.40
2019-02-23T15:59:44.760Z,10.30
2019-02-23T16:02:15.549Z,10.20
2019-02-23T16:05:23.339Z,10.20
2019-02-23T16:07:54.687Z,10.10
2019-02-23T16:13:30.060Z,10.00
2019-02-23T16:16:01.768Z,9.90
2019-02-23T16:18:43.690Z,9.90
2019-02-23T16:21:16.344Z,9.80
2019-02-23T16:23:49.376Z,9.70
2019-02-23T16:26:22.958Z,9.60
2019-02-23T16:28:55.876Z,9.60
2019-02-23T16:31:26.985Z,9.50
2019-02-23T16:33:57.145Z,9.40
2019-02-23T16:36:27.565Z,9.30
2019-02-23T16:38:57.865Z,9.30
2019-02-23T16:41:34.424Z,9.20
2019-02-23T16:44:04.662Z,9.10
2019-02-23T16:47:10.862Z,9.00
2019-02-23T16:53:21.106Z,8.90
2019-02-23T16:59:32.901Z,8.70
2019-02-23T17:02:04.213Z,8.60
2019-02-23T17:04:36.662Z,8.50
2019-02-23T17:07:10.209Z,8.50
2019-02-23T17:09:41.172Z,8.40
2019-02-23T17:21:20.377Z,8.20
2019-02-23T17:23:51.410Z,8.10
2019-02-23T17:40:16.416Z,7.60
2019-02-23T17:42:47.386Z,7.50
2019-02-23T17:45:18.157Z,7.50
2019-02-23T17:48:01.039Z,7.50
2019-02-23T17:50:35.251Z,7.40
2019-02-23T17:53:05.623Z,7.30
2019-02-23T17:56:12.099Z,7.30
2019-02-23T18:02:09.382Z,7.20
2019-02-23T18:15:20.318Z,7.00
2019-02-23T18:17:52.152Z,6.90
2019-02-23T18:20:22.507Z,6.80
2019-02-23T18:22:53.144Z,6.80
2019-02-23T18:25:24.558Z,6.70
2019-02-23T18:31:22.461Z,6.60
2019-02-23T18:33:59.088Z,6.50
2019-02-23T18:43:16.560Z,6.30
2019-02-23T18:45:54.512Z,6.30
2019-02-23T18:48:29.124Z,6.30
2019-02-23T18:54:41.426Z,6.30
2019-02-23T18:57:12.022Z,6.30
2019-02-23T18:59:45.042Z,6.20
2019-02-23T19:10:40.315Z,6.20
2019-02-23T19:16:43.045Z,6.10
2019-02-23T19:19:15.383Z,6.10
2019-02-23T19:24:00.673Z,6.10
2019-02-23T19:31:10.438Z,5.90
2019-02-23T19:33:40.555Z,5.90
2019-02-23T19:36:21.640Z,5.90
2019-02-23T19:38:53.288Z,5.90
2019-02-23T19:41:28.287Z,5.90
2019-02-23T19:43:57.868Z,5.80
2019-02-23T19:50:17.910Z,5.80
2019-02-23T19:56:27.900Z,5.70
2019-02-23T19:59:00.203Z,5.70
2019-02-23T20:01:29.599Z,5.70
2019-02-23T20:03:59.095Z,5.60
2019-02-23T20:06:28.518Z,5.60
2019-02-23T20:09:03.080Z,5.60
2019-02-23T20:11:33.776Z,5.60
2019-02-23T20:14:09.158Z,5.50
2019-02-23T20:16:40.297Z,5.50
2019-02-23T20:19:15.574Z,5.50
2019-02-23T20:21:44.939Z,5.50
2019-02-23T20:24:20.649Z,5.40
2019-02-23T20:26:55.613Z,5.40
2019-02-23T20:33:10.598Z,5.40
2019-02-23T20:35:40.346Z,5.30
2019-02-23T20:38:17.307Z,5.30
2019-02-23T20:44:38.744Z,5.30
2019-02-23T20:47:02.885Z,5.30
2019-02-23T20:49:32.718Z,5.20
2019-02-23T20:52:05.523Z,5.20
2019-02-23T20:54:35.014Z,5.10
2019-02-23T20:57:08.027Z,5.10
2019-02-23T20:59:36.270Z,5.10
2019-02-23T21:02:05.544Z,5.10
2019-02-23T21:04:35.053Z,5.10
2019-02-23T21:07:04.423Z,5.10
2019-02-23T21:13:20.908Z,5.00
2019-02-23T21:15:50.855Z,5.00
2019-02-23T21:18:22.684Z,4.90
2019-02-23T21:24:32.186Z,4.80
2019-02-23T21:27:12.669Z,4.80
2019-02-23T21:29:40.412Z,4.70
2019-02-23T21:32:10.064Z,4.70
2019-02-23T21:34:39.765Z,4.70
2019-02-23T21:40:54.343Z,4.70
2019-02-23T21:47:03.928Z,4.60
2019-02-23T21:53:13.993Z,4.60
2019-02-23T21:55:43.619Z,4.50
2019-02-23T21:58:17.921Z,4.50
2019-02-23T22:00:49.437Z,4.50
2019-02-23T22:03:21.689Z,4.50
2019-02-23T22:05:51.361Z,4.50
2019-02-23T22:09:09.414Z,4.50
2019-02-23T22:11:39.459Z,4.50
2019-02-23T22:14:14.078Z,4.50
2019-02-23T22:20:26.565Z,4.50
2019-02-23T22:22:56.691Z,4.40
2019-02-23T22:25:26.224Z,4.40
2019-02-23T22:27:55.585Z,4.40
2019-02-23T22:30:25.840Z,4.40
2019-02-23T22:32:55.400Z,4.30
2019-02-23T22:35:25.120Z,4.30
2019-02-23T22:37:55.889Z,4.30
2019-02-23T22:40:25.407Z,4.20
2019-02-23T22:42:54.825Z,4.20
2019-02-23T22:45:24.648Z,4.20
2019-02-23T22:47:54.041Z,4.20
2019-02-23T22:50:24.999Z,4.10
2019-02-23T22:56:34.341Z,4.10
2019-02-23T23:02:44.733Z,4.20
2019-02-23T23:05:14.323Z,4.20
2019-02-23T23:11:41.584Z,4.20
2019-02-23T23:14:11.245Z,4.10
2019-02-23T23:17:27.672Z,4.10
2019-02-23T23:19:57.757Z,4.10
2019-02-23T23:22:27.506Z,4.10
2019-02-23T23:25:20.719Z,4.10
2019-02-23T23:28:00.461Z,4.00
2019-02-23T23:30:31.750Z,4.00
2019-02-23T23:33:01.450Z,4.00
2019-02-23T23:39:11.085Z,3.90
2019-02-23T23:41:40.433Z,4.00
2019-02-23T23:44:09.757Z,3.90
2019-02-23T23:46:41.412Z,3.90
2019-02-23T23:49:11.133Z,3.90
2019-02-23T23:55:20.827Z,3.90
2019-02-23T23:57:58.002Z,3.90
